Plevna, Montana
Current Conditions -  °F | °C
As of 11:39 PM on Tuesday 25 Nov 2014 (Local Time) from KBHK Reporting Station
Overcast Overcast  
Wind Chill: 13°   Ceiling: 1300
Heat Index: 24°   Visibility: 10mi
Dew Point: 21°   Wind: 12mph
Humidity: 88%   Direction: 330°NNW
Pressure: 30.15"   Gusts: NA
Location:  46.42°N, 104.52°W
Report Text: KBHK 260639Z AUTO 33010KT 10SM SCT009 BKN013 OVC021 M04/M06 A3015 RMK AO2 T10441061
Loading
Personal Weather Stations






























Interactive Weather Map New forecast layout! Learn more

10-Day Weather Forecast

Advertisements
Track Severe Weather on mobile